Time;durP1;ratioP1;P1;durP2;ratioP2;P2;SDS_P1;SDS_P2;PMS_P1;PMS_P2;Temp;Humidity;BMP_temperature;BMP_pressure;BME280_temperature;BME280_humidity;BME280_pressure;Samples;Min_cycle;Max_cycle;Signal;HPM_P1;HPM_P2
2023/05/19 00:01:13;;;;;;;91.00;62.60;;;27.50;99.90;;;;;;5033325;28;20101;-70
2023/05/19 00:03:52;;;;;;;84.30;59.42;;;27.60;99.90;;;;;;5033421;28;20083;-71
2023/05/19 00:06:26;;;;;;;92.85;63.38;;;27.60;99.90;;;;;;5033330;28;20034;-73
2023/05/19 00:08:58;;;;;;;102.55;68.43;;;27.60;99.90;;;;;;5033375;28;20029;-69
2023/05/19 00:11:25;;;;;;;1392.45;999.90;;;;;;;;;;5033445;28;20171;-70
2023/05/19 00:13:53;;;;;;;1206.75;886.40;;;;;;;;;;5033241;28;20039;-72
2023/05/19 00:16:20;;;;;;;1704.45;999.90;;;;;;;;;;5033356;28;20037;-69
2023/05/19 00:18:47;;;;;;;1349.43;999.90;;;;;;;;;;5033470;28;20053;-71
2023/05/19 00:21:14;;;;;;;85.53;59.22;;;;;;;;;;5033342;28;20371;-68
2023/05/19 00:23:40;;;;;;;81.25;54.70;;;;;;;;;;5033673;28;20029;-68
2023/05/19 00:26:07;;;;;;;85.97;57.17;;;;;;;;;;5031207;28;20069;-71
2023/05/19 00:28:33;;;;;;;77.88;55.53;;;;;;;;;;5023648;28;20112;-68
2023/05/19 00:31:01;;;;;;;1477.63;999.90;;;;;;;;;;5013609;28;20018;-68
2023/05/19 00:33:27;;;;;;;927.22;828.42;;;;;;;;;;5013841;28;20030;-66
2023/05/19 00:35:54;;;;;;;162.02;108.10;;;;;;;;;;5013219;28;20030;-69
2023/05/19 00:38:21;;;;;;;217.55;149.10;;;;;;;;;;5013315;28;20144;-69
2023/05/19 00:40:47;;;;;;;156.68;110.70;;;;;;;;;;5013253;28;20104;-69
2023/05/19 00:43:14;;;;;;;157.68;108.18;;;;;;;;;;5013158;28;20030;-69
2023/05/19 00:45:41;;;;;;;1548.30;999.90;;;;;;;;;;5013508;28;20026;-68
2023/05/19 00:48:07;;;;;;;1573.10;999.90;;;;;;;;;;5015327;28;20483;-69
2023/05/19 00:50:34;;;;;;;453.80;404.27;;;;;;;;;;5016799;28;20036;-71
2023/05/19 00:53:00;;;;;;;173.27;152.95;;;;;;;;;;5017032;28;20108;-69
2023/05/19 00:55:29;;;;;;;56.75;37.85;;;;;;;;;;5016761;28;20523;-70
2023/05/19 00:57:56;;;;;;;190.00;165.50;;;;;;;;;;5016745;28;20057;-70
2023/05/19 01:00:23;;;;;;;53.50;37.30;;;;;;;;;;5017198;28;20396;-69
2023/05/19 01:02:50;;;;;;;47.55;36.45;;;;;;;;;;5016797;28;20467;-71
2023/05/19 01:05:17;;;;;;;100.90;90.07;;;;;;;;;;5016730;28;20372;-70
2023/05/19 01:07:45;;;;;;;35.88;24.65;;;;;;;;;;5016819;28;20376;-70
2023/05/19 01:10:12;;;;;;;45.90;40.78;;;;;;;;;;5016667;28;20034;-69
2023/05/19 01:12:40;;;;;;;38.00;23.23;;;;;;;;;;5016522;28;20419;-71
2023/05/19 01:15:08;;;;;;;30.52;22.45;;;;;;;;;;5016636;28;20042;-69
2023/05/19 01:17:44;;;;;;;31.88;22.55;;;;;;;;;;5016484;28;20033;-69
2023/05/19 01:20:22;;;;;;;31.10;20.83;;;;;;;;;;5016518;28;20378;-70
2023/05/19 01:23:02;;;;;;;164.52;88.55;;;;;;;;;;5016386;28;20026;-68
2023/05/19 01:25:31;;;;;;;26.88;20.05;;;;;;;;;;5016208;28;20018;-67
2023/05/19 01:28:00;;;;;;;84.93;60.75;;;;;;;;;;5016267;28;20111;-66
2023/05/19 01:30:29;;;;;;;23.75;18.60;;;;;;;;;;5016321;28;20093;-67
2023/05/19 01:32:59;;;;;;;23.63;18.45;;;;;;;;;;5016512;28;20058;-67
2023/05/19 01:35:26;;;;;;;27.45;18.55;;;;;;;;;;5016027;28;20041;-67
2023/05/19 01:37:55;;;;;;;55.67;33.58;;;;;;;;;;5018616;28;20410;-71
2023/05/19 01:40:22;;;;;;;200.32;109.70;;;;;;;;;;5019938;28;20032;-70
2023/05/19 01:42:50;;;;;;;277.67;186.73;;;;;;;;;;5019449;28;20510;-71
2023/05/19 01:45:17;;;;;;;28.23;21.38;;;;;;;;;;5034256;28;20504;-68
2023/05/19 01:47:46;;;;;;;28.63;20.70;;;;;;;;;;5031931;28;20529;-67
2023/05/19 01:50:13;;;;;;;32.40;22.85;;;;;;;;;;5034543;28;20056;-66
2023/05/19 01:52:39;;;;;;;34.28;23.52;;;;;;;;;;5035183;28;20026;-66
2023/05/19 01:55:06;;;;;;;68.10;54.60;;;;;;;;;;5035760;28;20030;-67
2023/05/19 01:57:53;;;;;;;58.88;44.30;;;;;;;;;;5034968;28;20036;-67
2023/05/19 02:00:26;;;;;;;60.42;43.88;;;;;;;;;;5034131;28;20041;-68
2023/05/19 02:02:53;;;;;;;38.42;28.05;;;;;;;;;;5035408;28;20071;-67
2023/05/19 02:05:29;;;;;;;29.75;23.83;;;;;;;;;;5029450;28;20028;-69
2023/05/19 02:08:04;;;;;;;31.35;23.02;;;;;;;;;;5035308;28;20035;-66
2023/05/19 02:10:32;;;;;;;30.23;23.23;;;;;;;;;;5040888;28;20112;-68
2023/05/19 02:13:01;;;;;;;28.25;22.58;;;;;;;;;;5034927;28;20065;-70
2023/05/19 02:15:29;;;;;;;26.70;21.98;;;;;;;;;;5041035;28;20441;-68
2023/05/19 02:17:58;;;;;;;32.78;21.73;;;;;;;;;;5046114;28;20017;-69
2023/05/19 02:20:25;;;;;;;30.27;21.35;;;;;;;;;;5045180;28;20029;-67
2023/05/19 02:22:52;;;;;;;32.38;22.38;;;;;;;;;;5044351;28;20022;-68
2023/05/19 02:25:18;;;;;;;33.20;23.63;;;;;;;;;;5045968;28;20484;-71
2023/05/19 02:27:45;;;;;;;33.97;24.20;;;;;;;;;;5044761;28;20025;-68
2023/05/19 02:30:12;;;;;;;30.77;25.35;;;;;;;;;;5044236;28;20021;-68
2023/05/19 02:32:39;;;;;;;34.55;26.77;;;;;;;;;;5045748;28;20024;-68
2023/05/19 02:35:06;;;;;;;35.80;26.70;;;;;;;;;;5044533;28;20504;-67
2023/05/19 02:37:32;;;;;;;34.45;26.00;;;;;;;;;;5044105;28;20568;-67
2023/05/19 02:39:59;;;;;;;32.70;24.10;;;;;;;;;;5044755;28;20100;-70
2023/05/19 02:42:26;;;;;;;32.38;25.83;;;;;;;;;;5040168;28;20505;-73
2023/05/19 02:44:53;;;;;;;34.05;27.00;;;;;;;;;;5045411;28;20385;-68
2023/05/19 02:47:20;;;;;;;35.22;25.70;;;;;;;;;;5039637;28;20386;-69
2023/05/19 02:49:47;;;;;;;31.75;24.25;;;;;;;;;;5039840;28;20028;-67
2023/05/19 02:52:13;;;;;;;27.95;22.95;;;;;;;;;;5045382;28;20018;-68
2023/05/19 02:54:40;;;;;;;28.20;23.15;;;;;;;;;;5040893;28;20474;-68
2023/05/19 02:57:07;;;;;;;34.70;25.17;;;;;;;;;;5038103;28;20028;-68
2023/05/19 02:59:33;;;;;;;29.27;22.08;;;;;;;;;;5042553;28;20120;-69
2023/05/19 03:02:01;;;;;;;24.58;20.83;;;;;;;;;;5042975;28;20071;-67
2023/05/19 03:04:28;;;;;;;31.25;23.05;;;;;;;;;;5045786;28;20025;-69
2023/05/19 03:06:56;;;;;;;30.83;23.67;;;;;;;;;;5043246;28;20021;-69
2023/05/19 03:09:22;;;;;;;30.08;23.67;;;;;;;;;;5048640;28;20050;-67
2023/05/19 03:11:49;;;;;;;29.85;22.70;;;;;;;;;;5048322;28;20100;-67
2023/05/19 03:14:17;;;;;;;34.47;24.38;;;;;;;;;;5043351;28;20022;-67
2023/05/19 03:16:43;;;;;;;39.28;29.92;;;;;;;;;;5044452;28;20048;-68
2023/05/19 03:19:10;;;;;;;29.48;22.40;;;;;;;;;;5044533;28;20087;-68
2023/05/19 03:21:37;;;;;;;31.60;23.27;;;;;;;;;;5042843;28;20051;-70
2023/05/19 03:24:03;;;;;;;40.45;28.23;;;;;;;;;;5044560;28;20021;-69
2023/05/19 03:26:30;;;;;;;32.95;24.10;;;;;;;;;;5044235;28;20026;-69
2023/05/19 03:28:57;;;;;;;41.25;29.17;;;;;;;;;;5042936;28;20017;-69
2023/05/19 03:31:25;;;;;;;36.50;28.65;;;;;;;;;;5044449;28;20379;-69
2023/05/19 03:33:52;;;;;;;54.45;40.20;;;;;;;;;;5044147;28;20401;-71
2023/05/19 03:36:18;;;;;;;52.42;39.25;;;;;;;;;;5042523;28;20523;-69
2023/05/19 03:38:45;;;;;;;47.08;34.10;;;;;;;;;;5044042;28;20021;-69
2023/05/19 03:41:12;;;;;;;43.40;31.75;;;;;;;;;;5044028;28;20025;-68
2023/05/19 03:43:38;;;;;;;53.60;34.90;;;;;;;;;;5042518;28;20017;-68
2023/05/19 03:46:05;;;;;;;47.72;33.95;;;;;;;;;;5043838;28;20025;-69
2023/05/19 03:48:31;;;;;;;44.35;34.35;;;;;;;;;;5044150;28;20483;-69
2023/05/19 03:50:58;;;;;;;38.50;31.92;;;;;;;;;;5042671;28;20028;-68
2023/05/19 03:53:25;;;;;;;42.10;32.90;;;;;;;;;;5043997;28;20053;-68
2023/05/19 03:55:51;;;;;;;35.78;29.48;;;;;;;;;;5043781;28;20116;-67
2023/05/19 03:58:18;;;;;;;44.55;31.23;;;;;;;;;;5042294;28;20032;-65
2023/05/19 04:00:45;;;;;;;66.07;50.50;;;;;;;;;;5043935;28;20048;-68
2023/05/19 04:03:11;;;;;;;42.22;34.95;;;;;;;;;;5043897;28;20434;-66
2023/05/19 04:05:38;;;;;;;55.00;42.38;;;;;;;;;;5042289;28;20059;-65
2023/05/19 04:08:04;;;;;;;50.85;39.97;;;;;;;;;;5044051;28;20379;-67
2023/05/19 04:10:31;;;;;;;51.22;40.05;;;;;;;;;;5043604;28;20026;-67
2023/05/19 04:12:58;;;;;;;49.28;35.38;;;;;;;;;;5042469;28;20482;-66
2023/05/19 04:15:24;;;;;;;42.50;32.08;;;;;;;;;;5043560;28;20086;-65
2023/05/19 04:17:51;;;;;;;39.97;31.92;;;;;;;;;;5043536;28;20075;-66
2023/05/19 04:20:18;;;;;;;43.35;35.47;;;;;;;;;;5042092;28;20108;-66
2023/05/19 04:22:44;;;;;;;47.65;36.25;;;;;;;;;;5044861;28;20021;-67
2023/05/19 04:25:11;;;;;;;40.35;31.67;;;;;;;;;;5047668;28;20029;-67
2023/05/19 04:27:38;;;;;;;44.67;33.88;;;;;;;;;;5045972;28;20497;-66
2023/05/19 04:30:07;;;;;;;43.60;33.63;;;;;;;;;;5047477;28;20540;-66
2023/05/19 04:32:36;;;;;;;42.95;34.55;;;;;;;;;;5047802;28;20044;-67
2023/05/19 04:35:02;;;;;;;39.22;30.80;;;;;;;;;;5043620;28;20811;-67
2023/05/19 04:37:29;;;;;;;36.58;29.15;;;;;;;;;;5046803;28;20047;-66
2023/05/19 04:39:56;;;;;;;32.22;26.27;;;;;;;;;;5047832;28;20025;-67
2023/05/19 04:42:24;;;;;;;41.25;30.70;;;;;;;;;;5044525;28;20434;-67
2023/05/19 04:44:51;;;;;;;38.47;30.70;;;;;;;;;;5046305;28;20029;-66
2023/05/19 04:47:20;;;;;;;39.85;30.80;;;;;;;;;;5047775;28;20088;-67
2023/05/19 04:49:46;;;;;;;39.15;30.58;;;;;;;;;;5046576;28;20044;-67
2023/05/19 04:52:13;;;;;;;41.50;31.38;;;;;;;;;;5045974;28;20025;-68
2023/05/19 04:54:40;;;;;;;43.15;33.38;;;;;;;;;;5044187;28;20053;-67
2023/05/19 04:57:09;;;;;;;43.00;34.45;;;;;;;;;;5036012;28;20022;-67
2023/05/19 04:59:35;;;;;;;49.58;35.97;;;;;;;;;;5035767;28;20025;-66
2023/05/19 05:02:03;;;;;;;48.38;37.15;;;;;;;;;;5053777;28;20113;-67
2023/05/19 05:04:29;;;;;;;55.40;41.78;;;;;;;;;;5049043;28;20557;-67
2023/05/19 05:06:56;;;;;;;43.72;33.90;;;;;;;;;;5048692;28;20083;-68
2023/05/19 05:09:22;;;;;;;44.13;34.88;;;;;;;;;;5047575;28;20009;-67
2023/05/19 05:11:50;;;;;;;40.03;31.80;;;;;;;;;;5048576;28;20028;-67
2023/05/19 05:14:17;;;;;;;40.00;31.17;;;;;;;;;;5048867;28;20037;-68
2023/05/19 05:16:43;;;;;;;38.45;31.13;;;;;;;;;;5048098;28;20410;-67
2023/05/19 05:19:10;;;;;;;35.58;28.23;;;;;;;;;;5047804;28;20029;-68
2023/05/19 05:21:37;;;;;;;35.20;27.95;;;;;;;;;;5047532;28;20056;-67
2023/05/19 05:24:04;;;;;;;34.92;27.70;;;;;;;;;;5047712;28;20439;-67
2023/05/19 05:26:33;;;;;;;33.40;27.30;;;;;;;;;;5045128;28;20032;-68
2023/05/19 05:28:59;;;;;;;43.30;29.85;;;;;;;;;;5046003;28;20036;-67
2023/05/19 05:31:26;;;;;;;31.48;26.00;;;;;;;;;;5035987;28;20030;-67
2023/05/19 05:33:53;;;;;;;33.35;26.48;;;;;;;;;;5037013;28;20378;-65
2023/05/19 05:36:19;;;;;;;29.73;24.15;;;;;;;;;;5043866;28;20108;-70
2023/05/19 05:38:46;;;;;;;31.40;25.45;;;;;;;;;;5045549;28;20020;-70
2023/05/19 05:41:12;;;;;;;31.13;24.08;;;;;;;;;;5044956;28;20021;-74
2023/05/19 05:43:39;;;;;;;35.97;26.48;;;;;;;;;;5045246;28;20108;-72
2023/05/19 05:46:06;;;;;;;33.25;25.73;;;;;;;;;;5043330;28;20086;-72
2023/05/19 05:48:33;;;;;;;32.70;26.70;;;;;;;;;;5044919;28;20025;-72
2023/05/19 05:50:59;;;;;;;36.92;27.15;;;;;;;;;;5047682;28;20025;-73
2023/05/19 05:53:29;;;;;;;33.13;27.17;;;;;;;;;;5042334;28;20508;-73
2023/05/19 05:55:56;;;;;;;39.58;30.15;;;;;;;;;;5040829;28;20453;-73
2023/05/19 05:58:23;;;;;;;36.20;29.05;;;;;;;;;;5047920;28;20013;-71
2023/05/19 06:00:50;;;;;;;34.97;26.25;;;;;;;;;;5042723;28;20157;-71
2023/05/19 06:03:16;;;;;;;36.60;27.30;;;;;;;;;;5041177;28;20379;-71
2023/05/19 06:05:43;;;;;;;48.97;34.00;;;;;;;;;;5041063;28;20075;-70
2023/05/19 06:08:10;;;;;;;32.88;26.27;;;;;;;;;;5042746;28;20018;-69
2023/05/19 06:10:40;;;;;;;31.20;25.60;;;;;;;;;;5044811;28;20406;-70
2023/05/19 06:13:07;;;;;;;36.83;28.40;;;;;;;;;;5044787;28;20100;-71
2023/05/19 06:15:33;;;;;;;33.03;27.35;;;;;;;;;;5042561;28;20038;-68
2023/05/19 06:18:00;;;;;;;33.55;27.13;;;;;;;;;;5044054;28;20017;-70
2023/05/19 06:20:27;;;;;;;32.53;25.92;;;;;;;;;;5044764;28;20029;-70
2023/05/19 06:22:53;;;;;;;33.75;26.98;;;;;;;;;;5042907;28;20017;-71
2023/05/19 06:25:20;;;;;;;38.67;29.25;;;;;;;;;;5043810;28;20021;-69
2023/05/19 06:27:47;;;;;;;35.30;27.77;;;;;;;;;;5044441;28;20028;-72
2023/05/19 06:30:13;;;;;;;39.53;29.00;;;;;;;;;;5042500;28;20044;-74
2023/05/19 06:32:40;;;;;;;38.75;30.95;;;;;;;;;;5041254;28;20035;-72
2023/05/19 06:35:07;;;;;;;37.17;27.23;;;;;;;;;;5040918;28;20156;-72
2023/05/19 06:37:33;;;;;;;36.60;26.40;;;;;;;;;;5043103;28;20068;-71
2023/05/19 06:40:00;;;;;;;38.78;29.30;;;;;;;;;;5043125;28;20457;-71
2023/05/19 06:42:27;;;;;;;38.67;28.65;;;;;;;;;;5044447;28;20032;-73
2023/05/19 06:44:53;;;;;;;40.28;30.80;;;;;;;;;;5036256;28;20387;-71
2023/05/19 06:47:20;;;;;;;37.88;28.75;;;;;;;;;;5033965;28;20363;-72
2023/05/19 06:49:49;;;;;;;34.80;29.20;;;;;;;;;;5034555;28;20083;-70
2023/05/19 06:52:16;;;;;;;37.35;29.52;;;;;;;;;;5043728;28;20040;-69
2023/05/19 06:54:43;;;;;;;45.15;33.63;;;;;;;;;;5047068;28;20124;-71
2023/05/19 06:57:09;;;;;;;41.05;31.58;;;;;;;;;;5046769;28;20013;-69
2023/05/19 06:59:36;;;;;;;37.30;28.58;;;;;;;;;;5047518;28;20025;-69
2023/05/19 07:02:03;;;;;;;40.63;29.10;;;;;;;;;;5047081;28;20014;-70
2023/05/19 07:04:30;;;;;;;36.45;29.35;;;;;;;;;;5042431;28;20061;-74
2023/05/19 07:06:57;;;;;;;38.25;28.55;;;;;;;;;;5033098;28;20033;-73
2023/05/19 07:09:24;;;;;;;46.53;31.38;;;;;;;;;;5041965;28;20033;-72
2023/05/19 07:11:50;;;;;;;38.28;31.40;;;;;;;;;;5043349;28;20430;-70
2023/05/19 07:14:17;;;;;;;37.88;29.35;;;;;;;;;;5043160;28;20481;-71
2023/05/19 07:16:44;;;;;;;34.45;25.63;;;;;;;;;;5041494;28;20049;-70
2023/05/19 07:19:10;;;;;;;32.63;25.58;;;;;;;;;;5043330;28;20044;-70
2023/05/19 07:21:37;;;;;;;36.25;26.92;;;;;;;;;;5042927;28;20029;-70
2023/05/19 07:24:04;;;;;;;34.70;26.52;;;;;;;;;;5041685;28;20022;-70
2023/05/19 07:26:30;;;;;;;29.00;22.52;;;;;;;;;;5043150;28;20025;-71
2023/05/19 07:28:57;;;;;;;31.02;23.58;;;;;;;;;;5042760;28;20052;-70
2023/05/19 07:31:23;;;;;;;25.85;20.80;;;;;;;;;;5042079;28;20112;-70
2023/05/19 07:33:50;;;;;;;24.73;19.50;;;;;;;;;;5043247;28;20147;-71
2023/05/19 07:36:17;;;;;;;31.05;22.52;;;;;;;;;;5042569;28;20417;-70
2023/05/19 07:38:43;;;;;;;27.05;21.75;;;;;;;;;;5041387;28;20096;-70
2023/05/19 07:41:10;;;;;;;26.45;20.80;;;;;;;;;;5039164;28;20028;-70
2023/05/19 07:43:37;;;;;;;27.98;22.05;;;;;;;;;;5042430;28;20035;-71
2023/05/19 07:46:03;;;;;;;29.10;23.20;;;;;;;;;;5043327;28;21388;-70
2023/05/19 07:48:30;;;;;;;27.95;21.67;;;;;;;;;;5038884;28;20095;-70
2023/05/19 07:50:57;;;;;;;30.88;24.10;;;;;;;;;;5042272;28;20123;-70
2023/05/19 07:53:23;;;;;;;31.80;23.65;;;;;;;;;;5043409;28;20021;-70
2023/05/19 07:55:50;;;;;;;30.85;24.02;;;;;;;;;;5038751;28;20028;-70
2023/05/19 07:58:17;;;;;;;28.98;21.98;;;;;;;;;;5042116;28;20492;-70
2023/05/19 08:00:44;;;;;;;34.67;23.95;;;;;;;;;;5043053;28;20033;-70
2023/05/19 08:03:12;;;;;;;32.17;24.92;;;;;;;;;;5041235;28;20022;-70
2023/05/19 08:05:39;;;;;;;30.63;24.23;;;;;;;;;;5041714;28;20061;-70
2023/05/19 08:08:06;;;;;;;32.83;25.38;;;;;;;;;;5042995;28;20097;-67
2023/05/19 08:10:32;;;;;;;33.78;25.55;;;;;;;;;;5041257;28;20029;-65
2023/05/19 08:12:59;;;;;;;38.63;26.05;;;;;;;;;;5041644;28;20018;-67
2023/05/19 08:15:25;;;;;;;33.75;25.05;;;;;;;;;;5043126;28;20444;-67
2023/05/19 08:17:52;;;;;;;31.58;24.70;;;;;;;;;;5041917;28;20032;-66
2023/05/19 08:20:19;;;;;;;32.30;24.48;;;;;;;;;;5042099;28;20013;-67
2023/05/19 08:22:46;;;;;;;33.95;26.13;;;;;;;;;;5043051;28;20028;-67
2023/05/19 08:25:12;;;;;;;36.10;26.02;;;;;;;;;;5041758;28;20052;-67
2023/05/19 08:27:39;;;;;;;32.17;24.92;;;;;;;;;;5042077;28;20032;-69
2023/05/19 08:30:06;;;;;;;51.60;39.13;;;;;;;;;;5043370;28;20107;-67
2023/05/19 08:32:32;;;;;;;32.17;25.08;;;;;;;;;;5062291;23;20049;-70
2023/05/19 08:34:59;;;;;;;32.08;24.40;;;;;;;;;;5052386;28;20036;-68
2023/05/19 08:37:26;;;;;;;33.17;26.05;;;;;;;;;;5052410;28;20450;-68
2023/05/19 08:39:52;;;;;;;38.83;28.75;;;;;;;;;;5052281;28;20031;-68
2023/05/19 08:42:19;;;;;;;35.92;27.98;;;;;;;;;;5051755;28;20516;-67
2023/05/19 08:44:46;;;;;;;39.78;30.75;;;;;;;;;;5052348;28;20025;-68
2023/05/19 08:47:14;;;;;;;36.85;26.15;;;;;;;;;;5052143;28;20190;-68
2023/05/19 08:49:45;;;;;;;35.55;28.20;;;;;;;;;;5052177;28;20378;-68
2023/05/19 08:52:12;;;;;;;43.75;34.60;;;;;;;;;;5047563;28;20013;-67
2023/05/19 08:54:45;;;;;;;41.17;29.80;;;;;;;;;;5051844;28;20351;-63
2023/05/19 08:57:12;;;;;;;42.63;28.80;;;;;;;;;;5047726;28;20470;-67
2023/05/19 08:59:40;;;;;;;40.92;28.40;;;;;;;;;;5071179;23;20456;-67
2023/05/19 09:02:07;;;;;;;39.42;27.05;;;;;;;;;;5052172;28;20092;-67
2023/05/19 09:04:35;;;;;;;37.78;28.42;;;;;;;;;;5052262;28;20116;-69
2023/05/19 09:07:02;;;;;;;34.58;26.88;;;;;;;;;;5052556;28;20017;-68
2023/05/19 09:09:30;;;;;;;41.25;32.03;;;;;;;;;;5055397;23;20054;-67
2023/05/19 09:11:57;;;;;;;36.58;28.88;;;;;;;;;;5026505;28;20097;-67
2023/05/19 09:14:24;;;;;;;38.10;30.30;;;;;;;;;;5026935;28;20076;-68
2023/05/19 09:16:51;;;;;;;55.05;36.78;;;;;;;;;;5024826;28;20018;-68
2023/05/19 09:19:19;;;;;;;56.28;36.95;;;;;;;;;;5025376;28;20462;-68
2023/05/19 09:21:46;;;;;;;47.67;34.20;;;;;;;;;;5027346;28;20028;-67
2023/05/19 09:24:13;;;;;;;46.33;33.33;;;;;;;;;;5025105;28;20025;-68
2023/05/19 09:26:42;;;;;;;38.00;27.65;;;;;;;;;;5024381;28;20443;-69
2023/05/19 09:29:11;;;;;;;38.65;28.27;;;;;;;;;;5027203;28;20017;-67
2023/05/19 09:31:38;;;;;;;44.17;33.42;;;;;;;;;;5025681;28;20038;-68
2023/05/19 09:34:05;;;;;;;50.30;33.95;;;;;;;;;;5024629;28;20088;-67
2023/05/19 09:36:31;;;;;;;44.72;33.95;;;;;;;;;;5026395;28;20055;-67
2023/05/19 09:38:58;;;;;;;48.88;35.83;;;;;;;;;;5039684;22;20054;-67
2023/05/19 09:41:25;;;;;;;49.13;35.20;;;;;;;;;;5015677;28;20546;-67
2023/05/19 09:43:57;;;;;;;48.30;35.97;;;;;;;;;;5016824;28;20034;-68
2023/05/19 09:46:27;;;;;;;63.35;42.25;;;;;;;;;;5016722;28;20399;-67
2023/05/19 09:49:08;;;;;;;58.88;41.72;;;;;;;;;;5016581;28;20018;-67
2023/05/19 09:51:36;;;;;;;65.88;47.45;;;;;;;;;;5015878;28;20069;-67
2023/05/19 09:54:03;;;;;;;51.85;38.58;;;;;;;;;;5015090;28;20088;-68
2023/05/19 09:56:34;;;;;;;50.17;35.20;;;;;;;;;;5015123;28;20460;-66
2023/05/19 09:59:01;;;;;;;52.60;37.40;;;;;;;;;;5014306;28;20026;-67
2023/05/19 10:01:28;;;;;;;48.58;36.33;;;;;;;;;;5014405;28;20026;-67
2023/05/19 10:03:55;;;;;;;44.08;34.20;;;;;;;;;;5014492;28;20018;-66
2023/05/19 10:06:22;;;;;;;172.38;127.50;;;;;;;;;;5014615;28;20030;-68
2023/05/19 10:08:49;;;;;;;138.13;103.65;;;;;;;;;;5014631;28;20439;-67
2023/05/19 10:11:17;;;;;;;92.72;66.20;;;;;;;;;;5014494;28;20108;-67
2023/05/19 10:13:45;;;;;;;69.57;47.63;;;;;;;;;;5014127;28;20018;-68
2023/05/19 10:16:12;;;;;;;62.40;45.85;;;;;;;;;;5014409;28;20022;-68
2023/05/19 10:18:39;;;;;;;61.53;44.63;;;;;;;;;;5014232;28;20026;-67
2023/05/19 10:21:08;;;;;;;55.10;41.20;;;;;;;;;;5011417;28;20524;-71
2023/05/19 10:23:35;;;;;;;59.45;42.90;;;;;;;;;;5014150;28;20116;-70
2023/05/19 10:26:03;;;;;;;69.55;51.38;;;;;;;;;;5014831;28;20032;-69
2023/05/19 10:28:34;;;;;;;73.47;48.17;;;;;;;;;;5014829;28;20399;-70
2023/05/19 10:31:02;;;;;;;65.95;44.72;;;;;;;;;;5015045;28;20021;-71
2023/05/19 10:33:31;;;;;;;65.35;47.50;;;;;;;;;;5014454;28;20108;-71
2023/05/19 10:36:07;;;;;;;70.20;44.60;;;;;;;;;;5014157;28;20021;-70
2023/05/19 10:38:37;;;;;;;62.80;43.42;;;;;;;;;;5012755;28;20041;-71
2023/05/19 10:41:07;;;;;;;62.60;44.65;;;;;;;;;;5014684;28;20230;-71
2023/05/19 10:43:36;;;;;;;65.68;45.17;;;;;;;;;;5015229;28;20386;-69
2023/05/19 10:46:05;;;;;;;67.90;45.90;;;;;;;;;;5014371;28;20532;-69
2023/05/19 10:48:35;;;;;;;65.28;45.80;;;;;;;;;;5013656;28;20117;-71
2023/05/19 10:51:02;;;;;;;65.07;43.42;;;;;;;;;;5011330;28;20479;-71
2023/05/19 10:53:31;;;;;;;63.40;43.00;;;;;;;;;;5013783;28;20109;-69
2023/05/19 10:55:58;;;;;;;135.30;88.88;;;;;;;;;;5012490;28;20064;-69
2023/05/19 10:58:28;;;;;;;120.22;85.40;;;;;;;;;;5012620;28;20024;-72
2023/05/19 11:01:00;;;;;;;87.82;62.60;;;;;;;;;;5014536;28;20026;-71
2023/05/19 11:03:28;;;;;;;83.65;57.88;;;;;;;;;;5011791;28;20486;-70
2023/05/19 11:05:57;;;;;;;92.68;62.97;;;;;;;;;;5012166;28;20034;-68
2023/05/19 11:08:26;;;;;;;72.35;50.30;;;;;;;;;;5012572;28;20036;-67
2023/05/19 11:10:53;;;;;;;55.60;40.95;;;;;;;;;;5013860;28;20498;-67
2023/05/19 11:13:21;;;;;;;55.47;39.75;;;;;;;;;;5013642;28;20113;-67
2023/05/19 11:15:50;;;;;;;57.05;40.17;;;;;;;;;;5013324;28;20049;-70
2023/05/19 11:18:17;;;;;;;55.17;40.90;;;;;;;;;;5013931;28;20021;-70
2023/05/19 11:20:43;;;;;;;51.38;37.25;;;;;;;;;;5014052;28;20018;-68
2023/05/19 11:23:16;;;;;;;57.63;39.15;;;;;;;;;;5013565;28;20052;-71
2023/05/19 11:25:43;;;;;;;65.78;49.60;;;;;;;;;;5013723;28;20052;-70
2023/05/19 11:28:12;;;;;;;102.25;69.07;;;;;;;;;;5013492;28;20034;-69
2023/05/19 11:30:39;;;;;;;95.72;69.78;;;;;;;;;;5013280;28;20056;-69
2023/05/19 11:33:06;;;;;;;150.38;105.38;;;;;;;;;;5011146;28;20029;-71
2023/05/19 11:35:33;;;;;;;102.45;71.03;;;;;;;;;;5014067;28;20033;-71
2023/05/19 11:38:00;;;;;;;103.65;74.63;;;;;;;;;;5013725;28;20037;-70
2023/05/19 11:40:28;;;;;;;107.68;74.10;;;;;;;;;;5013283;28;20022;-71
2023/05/19 11:42:55;;;;;;;98.30;65.97;;;;;;;;;;5012387;28;20021;-70
2023/05/19 11:45:25;;;;;;;107.50;73.07;;;;;;;;;;5012227;28;20045;-68
2023/05/19 11:47:51;;;;;;;72.35;48.63;;;;;;;;;;5012522;28;20218;-68
2023/05/19 11:50:19;;;;;;;111.57;71.05;;;;;;;;;;5013363;28;20043;-70
2023/05/19 11:52:46;;;;;;;88.53;62.30;;;;;;;;;;5008893;28;20356;-71
2023/05/19 11:55:17;;;;;;;63.25;42.58;;;;;;;;;;5013617;28;20034;-71
2023/05/19 11:57:47;;;;;;;58.42;40.75;;;;;;;;;;5012607;28;20018;-69
2023/05/19 12:00:13;;;;;;;46.40;31.27;;;;;;;;;;5012577;28;20380;-68
2023/05/19 12:02:40;;;;;;;52.60;41.75;;;;;;;;;;5012876;28;20483;-70
2023/05/19 12:05:07;;;;;;;33.75;22.42;;;;;;;;;;5012646;28;20080;-72
2023/05/19 12:07:34;;;;;;;26.20;20.13;;;;;;;;;;5012645;28;20029;-72
2023/05/19 12:10:00;;;;;;;27.17;19.80;;;;;;;;;;5009605;28;20109;-68
2023/05/19 12:12:29;;;;;;;34.25;26.55;;;;;;;;;;5016731;28;20095;-71
2023/05/19 12:14:56;;;;;;;29.85;22.00;;;;;;;;;;5008889;28;20030;-71
2023/05/19 12:17:23;;;;;;;28.20;20.13;;;;;;;;;;5012576;28;20036;-71
2023/05/19 12:19:50;;;;;;;26.35;19.75;;;;;;;;;;5014575;28;20263;-71
2023/05/19 12:22:17;;;;;;;28.60;21.02;;;;;;;;;;5011809;28;20022;-69
2023/05/19 12:24:45;;;;;;;28.85;19.13;;;;;;;;;;5014174;28;20495;-71
2023/05/19 12:27:14;;;;;;;41.33;27.08;;;;;;;;;;5005320;28;20034;-70
2023/05/19 12:29:41;;;;;;;44.75;29.67;;;;;;;;;;5013431;28;20352;-68
2023/05/19 12:32:08;;;;;;;35.15;24.25;;;;;;;;;;5012728;28;20049;-70
2023/05/19 12:34:37;;;;;;;38.95;28.00;;;;;;;;;;5012975;28;20041;-71
2023/05/19 12:37:04;;;;;;;39.33;27.63;;;;;;;;;;5008901;28;20033;-71
2023/05/19 12:39:31;;;;;;;39.38;27.05;;;;;;;;;;5012696;28;20040;-70
2023/05/19 12:42:00;;;;;;;35.22;26.10;;;;;;;;;;5013259;28;20034;-69
2023/05/19 12:44:29;;;;;;;33.35;23.35;;;;;;;;;;5015322;28;20033;-71
2023/05/19 12:46:57;;;;;;;30.13;20.73;;;;;;;;;;5038038;28;20030;-72
2023/05/19 12:49:23;;;;;;;44.28;33.75;;;;;;;;;;5019391;28;20482;-72
2023/05/19 12:51:52;;;;;;;41.67;31.13;;;;;;;;;;5017563;28;20120;-73
2023/05/19 12:54:20;;;;;;;32.72;23.65;;;;;;;;;;5017086;28;20407;-72
2023/05/19 12:56:50;;;;;;;40.47;22.95;;;;;;;;;;5015674;28;20034;-72
2023/05/19 12:59:19;;;;;;;51.70;35.63;;;;;;;;;;5016441;28;20037;-73
2023/05/19 13:01:46;;;;;;;38.63;26.38;;;;;;;;;;5034099;28;20286;-74
2023/05/19 13:04:12;;;;;;;32.78;22.30;;;;;;;;;;5037528;28;20096;-74
2023/05/19 13:06:40;;;;;;;32.80;22.25;;;;;;;;;;5029290;28;20104;-73
2023/05/19 13:09:07;;;;;;;61.67;44.88;;;;;;;;;;5006839;28;20114;-74
2023/05/19 13:11:34;;;;;;;69.78;50.58;;;;;;;;;;5014473;28;20045;-73
2023/05/19 13:14:01;;;;;;;42.63;30.25;;;;;;;;;;5033312;28;20386;-73
2023/05/19 13:16:28;;;;;;;39.85;29.33;;;;;;;;;;5030376;28;20467;-74
2023/05/19 13:18:55;;;;;;;36.53;24.85;;;;;;;;;;4997539;28;20493;-73
2023/05/19 13:21:22;;;;;;;49.58;38.28;;;;;;;;;;5005992;28;20014;-71
2023/05/19 13:23:49;;;;;;;36.22;24.55;;;;;;;;;;5017624;28;20452;-70
2023/05/19 13:26:15;;;;;;;36.80;26.58;;;;;;;;;;5017633;28;20030;-71
2023/05/19 13:28:42;;;;;;;77.55;55.35;;;;;;;;;;5017539;28;20447;-69
2023/05/19 13:31:09;;;;;;;96.50;62.20;;;;;;;;;;5016183;28;20179;-69
2023/05/19 13:33:35;;;;;;;36.38;26.77;;;;;;;;;;5017373;28;20029;-71
2023/05/19 13:36:02;;;;;;;42.53;30.92;;;;;;;;;;5025038;28;20493;-69
2023/05/19 13:38:29;;;;;;;118.97;87.05;;;;;;;;;;5035298;28;20042;-70
2023/05/19 13:40:56;;;;;;;53.05;37.13;;;;;;;;;;5036493;28;20017;-67
2023/05/19 13:43:22;;;;;;;64.85;42.50;;;;;;;;;;5037016;28;20036;-70
2023/05/19 13:45:49;;;;;;;49.22;42.15;;;;;;;;;;5057521;23;20509;-69
2023/05/19 13:48:15;;;;;;;45.60;36.90;;;;;;;;;;5037100;28;20071;-71
2023/05/19 13:50:42;;;;;;;37.50;26.60;;;;;;;;;;5037005;28;20025;-74
2023/05/19 13:53:10;;;;;;;34.08;24.77;;;;;;;;;;5030957;28;20026;-70
2023/05/19 13:55:37;;;;;;;33.85;25.23;;;;;;;;;;5016794;28;20030;-72
2023/05/19 13:58:03;;;;;;;39.17;27.10;;;;;;;;;;5016035;28;20477;-72
2023/05/19 14:00:31;;;;;;;34.95;27.63;;;;;;;;;;5016470;28;20026;-71
2023/05/19 14:02:59;;;;;;;37.28;28.00;;;;;;;;;;5016317;28;20506;-70
2023/05/19 14:05:27;;;;;;;48.30;30.13;;;;;;;;;;5016506;28;20390;-71
2023/05/19 14:07:54;;;;;;;46.97;30.27;;;;;;;;;;5016871;28;20026;-70
2023/05/19 14:10:21;;;;;;;42.58;26.55;;;;;;;;;;5016770;28;20030;-71
2023/05/19 14:12:47;;;;;;;39.97;28.63;;;;;;;;;;5016453;28;20113;-71
2023/05/19 14:15:14;;;;;;;40.78;27.65;;;;;;;;;;5016533;28;20048;-72